sensor_id;sensor_type;location;lat;lon;timestamp;pressure;altitude;pressure_sealevel;temperature;humidity
43503;BME280;29098;48.184;16.298;2022-08-01T00:01:12;99162.00;;;20.61;67.52
43503;BME280;29098;48.184;16.298;2022-08-01T00:04:43;99168.38;;;20.60;68.06
43503;BME280;29098;48.184;16.298;2022-08-01T00:07:51;99180.72;;;20.61;68.58
43503;BME280;29098;48.184;16.298;2022-08-01T00:11:16;99169.81;;;20.40;69.90
43503;BME280;29098;48.184;16.298;2022-08-01T00:14:25;99171.47;;;20.24;70.82
43503;BME280;29098;48.184;16.298;2022-08-01T00:17:38;99164.72;;;20.16;71.48
43503;BME280;29098;48.184;16.298;2022-08-01T00:20:44;99179.91;;;20.10;72.44
43503;BME280;29098;48.184;16.298;2022-08-01T00:24:16;99165.91;;;20.03;72.49
43503;BME280;29098;48.184;16.298;2022-08-01T00:27:31;99168.59;;;19.86;73.54
43503;BME280;29098;48.184;16.298;2022-08-01T00:31:06;99161.13;;;19.88;73.76
43503;BME280;29098;48.184;16.298;2022-08-01T00:34:33;99165.53;;;19.77;74.38
43503;BME280;29098;48.184;16.298;2022-08-01T00:37:51;99173.19;;;19.68;74.91
43503;BME280;29098;48.184;16.298;2022-08-01T00:41:04;99156.75;;;19.60;75.49
43503;BME280;29098;48.184;16.298;2022-08-01T00:44:34;99164.94;;;19.53;76.19
43503;BME280;29098;48.184;16.298;2022-08-01T00:47:51;99155.78;;;19.49;76.40
43503;BME280;29098;48.184;16.298;2022-08-01T00:50:31;99157.41;;;19.50;76.38
43503;BME280;29098;48.184;16.298;2022-08-01T00:53:38;99160.38;;;19.70;74.58
43503;BME280;29098;48.184;16.298;2022-08-01T00:56:44;99157.94;;;19.69;74.84
43503;BME280;29098;48.184;16.298;2022-08-01T00:59:52;99154.03;;;19.77;74.56
43503;BME280;29098;48.184;16.298;2022-08-01T01:02:51;99160.69;;;19.74;74.34
43503;BME280;29098;48.184;16.298;2022-08-01T01:09:33;99159.75;;;19.85;74.16
43503;BME280;29098;48.184;16.298;2022-08-01T01:13:06;99158.44;;;19.88;73.54
43503;BME280;29098;48.184;16.298;2022-08-01T01:16:15;99158.88;;;19.80;74.02
43503;BME280;29098;48.184;16.298;2022-08-01T01:19:31;99176.22;;;19.94;72.80
43503;BME280;29098;48.184;16.298;2022-08-01T01:28:39;99163.13;;;19.76;74.30
43503;BME280;29098;48.184;16.298;2022-08-01T01:31:40;99168.47;;;19.76;74.66
43503;BME280;29098;48.184;16.298;2022-08-01T01:35:01;99158.56;;;19.76;75.07
43503;BME280;29098;48.184;16.298;2022-08-01T01:38:17;99147.63;;;19.78;75.17
43503;BME280;29098;48.184;16.298;2022-08-01T01:41:43;99162.44;;;19.85;74.58
43503;BME280;29098;48.184;16.298;2022-08-01T01:44:56;99157.91;;;19.86;74.41
43503;BME280;29098;48.184;16.298;2022-08-01T01:48:10;99168.19;;;19.94;74.10
43503;BME280;29098;48.184;16.298;2022-08-01T01:51:30;99131.91;;;19.81;73.99
43503;BME280;29098;48.184;16.298;2022-08-01T01:54:48;99152.78;;;19.84;74.15
43503;BME280;29098;48.184;16.298;2022-08-01T01:57:57;99146.69;;;19.89;74.11
43503;BME280;29098;48.184;16.298;2022-08-01T02:01:25;99145.53;;;20.02;73.56
43503;BME280;29098;48.184;16.298;2022-08-01T02:04:29;99149.59;;;20.05;73.51
43503;BME280;29098;48.184;16.298;2022-08-01T02:07:18;99150.66;;;20.04;73.48
43503;BME280;29098;48.184;16.298;2022-08-01T02:10:25;99162.66;;;20.01;73.65
43503;BME280;29098;48.184;16.298;2022-08-01T02:14:01;99151.50;;;20.09;73.18
43503;BME280;29098;48.184;16.298;2022-08-01T02:17:03;99152.34;;;20.10;73.22
43503;BME280;29098;48.184;16.298;2022-08-01T02:20:29;99148.09;;;20.14;72.89
43503;BME280;29098;48.184;16.298;2022-08-01T02:24:12;99146.97;;;20.10;73.12
43503;BME280;29098;48.184;16.298;2022-08-01T02:27:10;99134.97;;;20.12;72.35
43503;BME280;29098;48.184;16.298;2022-08-01T02:30:38;99139.06;;;20.20;72.89
43503;BME280;29098;48.184;16.298;2022-08-01T02:33:40;99140.31;;;20.12;73.52
43503;BME280;29098;48.184;16.298;2022-08-01T02:36:30;99123.59;;;20.00;74.04
43503;BME280;29098;48.184;16.298;2022-08-01T02:39:28;99149.22;;;20.18;74.19
43503;BME280;29098;48.184;16.298;2022-08-01T02:42:47;99135.72;;;20.08;73.53
43503;BME280;29098;48.184;16.298;2022-08-01T02:45:20;99137.34;;;20.09;73.85
43503;BME280;29098;48.184;16.298;2022-08-01T02:48:34;99146.34;;;20.03;74.81
43503;BME280;29098;48.184;16.298;2022-08-01T02:51:30;99141.13;;;20.13;73.29
43503;BME280;29098;48.184;16.298;2022-08-01T02:54:17;99132.63;;;20.21;72.76
43503;BME280;29098;48.184;16.298;2022-08-01T03:00:23;99142.69;;;20.09;73.50
43503;BME280;29098;48.184;16.298;2022-08-01T03:03:30;99132.06;;;20.14;73.24
43503;BME280;29098;48.184;16.298;2022-08-01T03:06:20;99131.00;;;20.15;72.97
43503;BME280;29098;48.184;16.298;2022-08-01T03:09:29;99114.63;;;20.11;72.61
43503;BME280;29098;48.184;16.298;2022-08-01T03:12:35;99125.38;;;20.17;71.75
43503;BME280;29098;48.184;16.298;2022-08-01T03:15:32;99129.41;;;20.19;71.49
43503;BME280;29098;48.184;16.298;2022-08-01T03:18:42;99132.09;;;20.19;71.64
43503;BME280;29098;48.184;16.298;2022-08-01T03:21:34;99134.28;;;20.22;71.50
43503;BME280;29098;48.184;16.298;2022-08-01T03:25:02;99122.75;;;20.22;71.21
43503;BME280;29098;48.184;16.298;2022-08-01T03:27:56;99128.47;;;20.31;71.04
43503;BME280;29098;48.184;16.298;2022-08-01T03:31:21;99108.38;;;20.28;70.35
43503;BME280;29098;48.184;16.298;2022-08-01T03:34:48;99108.00;;;20.19;70.66
43503;BME280;29098;48.184;16.298;2022-08-01T03:37:46;99121.56;;;20.35;70.64
43503;BME280;29098;48.184;16.298;2022-08-01T03:43:56;99109.00;;;20.35;70.88
43503;BME280;29098;48.184;16.298;2022-08-01T03:46:58;99107.00;;;20.25;71.72
43503;BME280;29098;48.184;16.298;2022-08-01T03:50:21;99116.72;;;20.32;71.89
43503;BME280;29098;48.184;16.298;2022-08-01T03:53:34;99111.28;;;20.26;72.06
43503;BME280;29098;48.184;16.298;2022-08-01T03:56:24;99109.63;;;20.20;72.28
43503;BME280;29098;48.184;16.298;2022-08-01T03:59:50;99121.94;;;20.21;72.35
43503;BME280;29098;48.184;16.298;2022-08-01T04:02:38;99124.56;;;20.16;72.64
43503;BME280;29098;48.184;16.298;2022-08-01T04:05:45;99109.31;;;20.17;72.31
43503;BME280;29098;48.184;16.298;2022-08-01T04:08:57;99109.50;;;20.10;72.35
43503;BME280;29098;48.184;16.298;2022-08-01T04:11:33;99123.50;;;20.17;72.23
43503;BME280;29098;48.184;16.298;2022-08-01T04:14:22;99142.03;;;20.24;72.06
43503;BME280;29098;48.184;16.298;2022-08-01T04:17:46;99132.94;;;20.25;71.64
43503;BME280;29098;48.184;16.298;2022-08-01T04:20:51;99141.25;;;20.23;70.88
43503;BME280;29098;48.184;16.298;2022-08-01T04:24:17;99127.88;;;20.23;70.92
43503;BME280;29098;48.184;16.298;2022-08-01T04:27:50;99132.25;;;20.35;70.38
43503;BME280;29098;48.184;16.298;2022-08-01T04:30:43;99131.19;;;20.36;70.00
43503;BME280;29098;48.184;16.298;2022-08-01T04:33:53;99138.75;;;20.39;69.79
43503;BME280;29098;48.184;16.298;2022-08-01T04:36:24;99155.09;;;20.43;69.74
43503;BME280;29098;48.184;16.298;2022-08-01T04:39:35;99146.25;;;20.42;70.02
43503;BME280;29098;48.184;16.298;2022-08-01T04:42:49;99153.06;;;20.55;69.82
43503;BME280;29098;48.184;16.298;2022-08-01T04:46:06;99149.84;;;20.53;69.69
43503;BME280;29098;48.184;16.298;2022-08-01T04:49:12;99150.66;;;20.53;69.73
43503;BME280;29098;48.184;16.298;2022-08-01T04:52:19;99158.44;;;20.55;69.59
43503;BME280;29098;48.184;16.298;2022-08-01T04:55:25;99141.56;;;20.55;68.91
43503;BME280;29098;48.184;16.298;2022-08-01T04:58:56;99151.00;;;20.62;68.78
43503;BME280;29098;48.184;16.298;2022-08-01T05:02:19;99154.28;;;20.70;68.38
43503;BME280;29098;48.184;16.298;2022-08-01T05:05:16;99150.06;;;20.74;68.58
43503;BME280;29098;48.184;16.298;2022-08-01T05:08:30;99151.91;;;20.73;68.66
43503;BME280;29098;48.184;16.298;2022-08-01T05:11:27;99146.00;;;20.71;68.98
43503;BME280;29098;48.184;16.298;2022-08-01T05:14:33;99147.53;;;20.89;68.45
43503;BME280;29098;48.184;16.298;2022-08-01T05:17:56;99146.69;;;20.84;68.28
43503;BME280;29098;48.184;16.298;2022-08-01T05:20:27;99143.69;;;20.80;68.58
43503;BME280;29098;48.184;16.298;2022-08-01T05:23:32;99147.53;;;20.89;69.25
43503;BME280;29098;48.184;16.298;2022-08-01T05:26:31;99144.47;;;20.80;68.92
43503;BME280;29098;48.184;16.298;2022-08-01T05:30:01;99158.56;;;20.93;68.08
43503;BME280;29098;48.184;16.298;2022-08-01T05:32:48;99158.56;;;20.93;67.64
43503;BME280;29098;48.184;16.298;2022-08-01T05:36:20;99155.16;;;21.03;68.45
43503;BME280;29098;48.184;16.298;2022-08-01T05:39:37;99142.84;;;21.07;67.17
43503;BME280;29098;48.184;16.298;2022-08-01T05:42:29;99152.84;;;21.17;67.41
43503;BME280;29098;48.184;16.298;2022-08-01T05:45:37;99155.22;;;21.13;66.69
43503;BME280;29098;48.184;16.298;2022-08-01T05:48:46;99160.16;;;21.27;66.00
43503;BME280;29098;48.184;16.298;2022-08-01T05:51:55;99161.50;;;21.29;65.81
43503;BME280;29098;48.184;16.298;2022-08-01T05:54:59;99169.09;;;21.38;65.89
43503;BME280;29098;48.184;16.298;2022-08-01T05:58:19;99157.31;;;21.44;65.75
43503;BME280;29098;48.184;16.298;2022-08-01T06:01:51;99163.53;;;21.55;65.79
43503;BME280;29098;48.184;16.298;2022-08-01T06:04:56;99167.59;;;21.57;65.00
43503;BME280;29098;48.184;16.298;2022-08-01T06:08:12;99165.56;;;21.70;64.42
43503;BME280;29098;48.184;16.298;2022-08-01T06:11:37;99154.22;;;21.62;65.10
43503;BME280;29098;48.184;16.298;2022-08-01T06:14:33;99162.59;;;21.71;65.02
43503;BME280;29098;48.184;16.298;2022-08-01T06:17:41;99152.13;;;21.75;65.28
43503;BME280;29098;48.184;16.298;2022-08-01T06:20:34;99160.19;;;21.70;64.83
43503;BME280;29098;48.184;16.298;2022-08-01T06:23:48;99154.59;;;21.82;63.95
43503;BME280;29098;48.184;16.298;2022-08-01T06:26:58;99161.34;;;21.84;63.79
43503;BME280;29098;48.184;16.298;2022-08-01T06:30:04;99160.59;;;22.05;63.44
43503;BME280;29098;48.184;16.298;2022-08-01T06:33:29;99163.28;;;22.10;63.40
43503;BME280;29098;48.184;16.298;2022-08-01T06:36:25;99164.69;;;22.17;63.28
43503;BME280;29098;48.184;16.298;2022-08-01T06:39:29;99172.22;;;22.26;62.79
43503;BME280;29098;48.184;16.298;2022-08-01T06:42:41;99175.72;;;22.31;62.40
43503;BME280;29098;48.184;16.298;2022-08-01T06:45:55;99167.94;;;22.30;62.17
43503;BME280;29098;48.184;16.298;2022-08-01T06:49:13;99175.75;;;22.47;62.38
43503;BME280;29098;48.184;16.298;2022-08-01T06:52:24;99179.31;;;22.58;61.50
43503;BME280;29098;48.184;16.298;2022-08-01T06:55:22;99175.03;;;22.73;61.41
43503;BME280;29098;48.184;16.298;2022-08-01T06:58:38;99157.84;;;22.89;59.82
43503;BME280;29098;48.184;16.298;2022-08-01T07:01:30;99176.41;;;23.22;59.41
43503;BME280;29098;48.184;16.298;2022-08-01T07:04:25;99172.91;;;23.42;56.85
43503;BME280;29098;48.184;16.298;2022-08-01T07:07:36;99171.28;;;23.51;56.04
43503;BME280;29098;48.184;16.298;2022-08-01T07:10:41;99162.94;;;23.58;56.35
43503;BME280;29098;48.184;16.298;2022-08-01T07:14:10;99185.25;;;23.59;55.66
43503;BME280;29098;48.184;16.298;2022-08-01T07:17:20;99167.50;;;23.58;55.70
43503;BME280;29098;48.184;16.298;2022-08-01T07:19:59;99166.41;;;23.69;55.99
43503;BME280;29098;48.184;16.298;2022-08-01T07:23:19;99178.22;;;23.78;56.09
43503;BME280;29098;48.184;16.298;2022-08-01T07:26:45;99177.13;;;23.85;56.18
43503;BME280;29098;48.184;16.298;2022-08-01T07:29:56;99175.56;;;23.63;57.15
43503;BME280;29098;48.184;16.298;2022-08-01T07:33:22;99178.53;;;23.66;56.55
43503;BME280;29098;48.184;16.298;2022-08-01T07:36:47;99182.84;;;23.52;56.89
43503;BME280;29098;48.184;16.298;2022-08-01T07:39:56;99189.59;;;23.34;57.16
43503;BME280;29098;48.184;16.298;2022-08-01T07:43:30;99186.91;;;23.34;57.67
43503;BME280;29098;48.184;16.298;2022-08-01T07:46:21;99193.09;;;23.29;58.06
43503;BME280;29098;48.184;16.298;2022-08-01T07:49:27;99175.88;;;23.20;58.63
43503;BME280;29098;48.184;16.298;2022-08-01T07:52:37;99190.13;;;23.25;59.14
43503;BME280;29098;48.184;16.298;2022-08-01T07:55:57;99203.03;;;23.23;58.87
43503;BME280;29098;48.184;16.298;2022-08-01T07:59:03;99208.41;;;23.23;59.46
43503;BME280;29098;48.184;16.298;2022-08-01T08:02:30;99188.78;;;23.23;58.16
43503;BME280;29098;48.184;16.298;2022-08-01T08:05:53;99198.19;;;23.25;58.43
43503;BME280;29098;48.184;16.298;2022-08-01T08:09:18;99195.53;;;23.31;58.45
43503;BME280;29098;48.184;16.298;2022-08-01T08:12:24;99189.59;;;23.34;58.36
43503;BME280;29098;48.184;16.298;2022-08-01T08:15:20;99203.28;;;23.48;58.16
43503;BME280;29098;48.184;16.298;2022-08-01T08:18:26;99210.81;;;23.61;57.66
43503;BME280;29098;48.184;16.298;2022-08-01T08:21:31;99203.00;;;23.70;55.84
43503;BME280;29098;48.184;16.298;2022-08-01T08:24:21;99206.13;;;23.98;56.06
43503;BME280;29098;48.184;16.298;2022-08-01T08:27:49;99206.69;;;24.00;55.77
43503;BME280;29098;48.184;16.298;2022-08-01T08:31:03;99200.03;;;24.48;54.29
43503;BME280;29098;48.184;16.298;2022-08-01T08:34:30;99202.84;;;25.12;51.28
43503;BME280;29098;48.184;16.298;2022-08-01T08:37:37;99200.03;;;24.93;51.50
43503;BME280;29098;48.184;16.298;2022-08-01T08:40:43;99199.88;;;25.14;51.05
43503;BME280;29098;48.184;16.298;2022-08-01T08:43:56;99194.84;;;25.07;51.25
43503;BME280;29098;48.184;16.298;2022-08-01T08:47:02;99203.34;;;25.20;51.08
43503;BME280;29098;48.184;16.298;2022-08-01T08:49:57;99189.50;;;24.97;51.17
43503;BME280;29098;48.184;16.298;2022-08-01T08:53:10;99215.34;;;25.03;51.86
43503;BME280;29098;48.184;16.298;2022-08-01T08:56:35;99200.66;;;25.20;51.27
43503;BME280;29098;48.184;16.298;2022-08-01T08:59:43;99205.56;;;25.12;50.92
43503;BME280;29098;48.184;16.298;2022-08-01T09:02:56;99196.16;;;25.39;51.68
43503;BME280;29098;48.184;16.298;2022-08-01T09:06:08;99206.38;;;25.42;49.93
43503;BME280;29098;48.184;16.298;2022-08-01T09:09:22;99201.81;;;25.43;49.79
43503;BME280;29098;48.184;16.298;2022-08-01T09:12:15;99185.41;;;25.34;50.54
43503;BME280;29098;48.184;16.298;2022-08-01T09:15:16;99200.81;;;25.63;49.57
43503;BME280;29098;48.184;16.298;2022-08-01T09:18:34;99210.16;;;25.71;49.54
43503;BME280;29098;48.184;16.298;2022-08-01T09:21:25;99193.81;;;25.62;50.06
43503;BME280;29098;48.184;16.298;2022-08-01T09:25:05;99194.16;;;25.80;50.09
43503;BME280;29098;48.184;16.298;2022-08-01T09:28:10;99217.81;;;25.88;48.61
43503;BME280;29098;48.184;16.298;2022-08-01T09:31:09;99205.88;;;25.94;49.13
43503;BME280;29098;48.184;16.298;2022-08-01T09:34:38;99213.94;;;25.99;49.15
43503;BME280;29098;48.184;16.298;2022-08-01T09:37:37;99222.19;;;26.08;48.77
43503;BME280;29098;48.184;16.298;2022-08-01T09:40:59;99216.09;;;25.97;49.40
43503;BME280;29098;48.184;16.298;2022-08-01T09:43:50;99211.38;;;26.08;50.08
43503;BME280;29098;48.184;16.298;2022-08-01T09:47:18;99211.50;;;26.22;47.87
43503;BME280;29098;48.184;16.298;2022-08-01T09:50:06;99217.59;;;26.09;48.52
43503;BME280;29098;48.184;16.298;2022-08-01T09:53:40;99204.28;;;25.93;49.81
43503;BME280;29098;48.184;16.298;2022-08-01T09:57:10;99220.00;;;25.86;49.15
43503;BME280;29098;48.184;16.298;2022-08-01T10:00:17;99214.94;;;26.04;48.42
43503;BME280;29098;48.184;16.298;2022-08-01T10:03:27;99219.25;;;26.05;47.49
43503;BME280;29098;48.184;16.298;2022-08-01T10:07:07;99210.38;;;26.04;47.77
43503;BME280;29098;48.184;16.298;2022-08-01T10:10:12;99203.00;;;25.85;48.37
43503;BME280;29098;48.184;16.298;2022-08-01T10:13:16;99206.91;;;25.74;48.83
43503;BME280;29098;48.184;16.298;2022-08-01T10:16:02;99205.16;;;25.59;49.04
43503;BME280;29098;48.184;16.298;2022-08-01T10:19:29;99199.84;;;25.78;49.25
43503;BME280;29098;48.184;16.298;2022-08-01T10:22:35;99199.38;;;26.20;48.88
43503;BME280;29098;48.184;16.298;2022-08-01T10:25:28;99197.94;;;26.66;48.00
43503;BME280;29098;48.184;16.298;2022-08-01T10:28:30;99203.72;;;26.78;47.62
43503;BME280;29098;48.184;16.298;2022-08-01T10:31:40;99194.38;;;26.71;47.24
43503;BME280;29098;48.184;16.298;2022-08-01T10:34:49;99195.38;;;27.13;47.54
43503;BME280;29098;48.184;16.298;2022-08-01T10:38:20;99194.91;;;27.39;45.01
43503;BME280;29098;48.184;16.298;2022-08-01T10:41:56;99190.66;;;27.94;45.04
43503;BME280;29098;48.184;16.298;2022-08-01T10:45:23;99196.00;;;28.27;43.92
43503;BME280;29098;48.184;16.298;2022-08-01T10:49:13;99188.44;;;28.38;43.07
43503;BME280;29098;48.184;16.298;2022-08-01T10:51:55;99183.03;;;28.61;40.75
43503;BME280;29098;48.184;16.298;2022-08-01T10:55:05;99177.50;;;28.66;41.03
43503;BME280;29098;48.184;16.298;2022-08-01T10:58:11;99169.72;;;29.19;40.27
43503;BME280;29098;48.184;16.298;2022-08-01T11:01:44;99178.00;;;29.86;38.43
43503;BME280;29098;48.184;16.298;2022-08-01T11:04:55;99178.66;;;29.92;37.93
43503;BME280;29098;48.184;16.298;2022-08-01T11:08:20;99177.41;;;29.98;37.60
43503;BME280;29098;48.184;16.298;2022-08-01T11:11:21;99170.59;;;30.45;36.94
43503;BME280;29098;48.184;16.298;2022-08-01T11:14:20;99168.22;;;30.87;37.24
43503;BME280;29098;48.184;16.298;2022-08-01T11:17:44;99187.72;;;30.63;37.91
43503;BME280;29098;48.184;16.298;2022-08-01T11:20:56;99157.44;;;31.09;37.08
43503;BME280;29098;48.184;16.298;2022-08-01T11:23:52;99158.28;;;31.87;35.07
43503;BME280;29098;48.184;16.298;2022-08-01T11:26:21;99177.16;;;30.97;36.71
43503;BME280;29098;48.184;16.298;2022-08-01T11:29:23;99155.28;;;30.67;36.95
43503;BME280;29098;48.184;16.298;2022-08-01T11:32:46;99169.19;;;31.48;35.94
43503;BME280;29098;48.184;16.298;2022-08-01T11:36:16;99152.03;;;30.65;35.74
43503;BME280;29098;48.184;16.298;2022-08-01T11:39:20;99160.41;;;29.84;37.02
43503;BME280;29098;48.184;16.298;2022-08-01T11:42:28;99154.69;;;29.85;36.11
43503;BME280;29098;48.184;16.298;2022-08-01T11:45:55;99144.91;;;29.75;36.32
43503;BME280;29098;48.184;16.298;2022-08-01T11:52:36;99142.88;;;28.86;38.83
43503;BME280;29098;48.184;16.298;2022-08-01T11:55:57;99154.47;;;29.64;38.66
43503;BME280;29098;48.184;16.298;2022-08-01T11:58:43;99153.16;;;29.61;37.67
43503;BME280;29098;48.184;16.298;2022-08-01T12:01:57;99165.66;;;29.71;36.54
43503;BME280;29098;48.184;16.298;2022-08-01T12:05:34;99160.56;;;29.06;38.60
43503;BME280;29098;48.184;16.298;2022-08-01T12:08:45;99161.34;;;28.38;39.18
43503;BME280;29098;48.184;16.298;2022-08-01T12:11:50;99165.66;;;28.39;39.69
43503;BME280;29098;48.184;16.298;2022-08-01T12:15:22;99166.09;;;27.62;41.67
43503;BME280;29098;48.184;16.298;2022-08-01T12:18:37;99173.50;;;27.57;42.32
43503;BME280;29098;48.184;16.298;2022-08-01T12:21:20;99182.25;;;27.68;42.82
43503;BME280;29098;48.184;16.298;2022-08-01T12:24:30;99168.34;;;27.41;44.12
43503;BME280;29098;48.184;16.298;2022-08-01T12:27:44;99170.25;;;27.41;43.46
43503;BME280;29098;48.184;16.298;2022-08-01T12:30:52;99175.13;;;27.11;41.16
43503;BME280;29098;48.184;16.298;2022-08-01T12:33:42;99179.50;;;27.06;41.62
43503;BME280;29098;48.184;16.298;2022-08-01T12:36:50;99181.72;;;27.18;41.71
43503;BME280;29098;48.184;16.298;2022-08-01T12:39:39;99196.47;;;27.12;41.50
43503;BME280;29098;48.184;16.298;2022-08-01T12:42:56;99184.41;;;27.04;41.64
43503;BME280;29098;48.184;16.298;2022-08-01T12:45:58;99188.75;;;26.67;42.77
43503;BME280;29098;48.184;16.298;2022-08-01T12:49:09;99191.22;;;26.44;43.40
43503;BME280;29098;48.184;16.298;2022-08-01T12:51:44;99190.50;;;26.38;44.86
43503;BME280;29098;48.184;16.298;2022-08-01T12:55:07;99184.31;;;26.13;46.71
43503;BME280;29098;48.184;16.298;2022-08-01T12:58:32;99176.38;;;26.22;48.11
43503;BME280;29098;48.184;16.298;2022-08-01T13:01:46;99176.38;;;26.22;48.48
43503;BME280;29098;48.184;16.298;2022-08-01T13:04:55;99178.50;;;26.01;49.60
43503;BME280;29098;48.184;16.298;2022-08-01T13:07:57;99180.53;;;25.90;50.30
43503;BME280;29098;48.184;16.298;2022-08-01T13:11:00;99175.53;;;26.03;50.44
43503;BME280;29098;48.184;16.298;2022-08-01T13:14:10;99167.94;;;26.05;51.04
43503;BME280;29098;48.184;16.298;2022-08-01T13:17:34;99157.91;;;27.20;48.40
43503;BME280;29098;48.184;16.298;2022-08-01T13:20:42;99163.47;;;28.87;45.62
43503;BME280;29098;48.184;16.298;2022-08-01T13:24:04;99147.00;;;29.06;44.43
43503;BME280;29098;48.184;16.298;2022-08-01T13:27:22;99141.06;;;29.76;43.51
43503;BME280;29098;48.184;16.298;2022-08-01T13:30:28;99142.13;;;30.16;42.34
43503;BME280;29098;48.184;16.298;2022-08-01T13:33:04;99123.91;;;30.16;40.44
43503;BME280;29098;48.184;16.298;2022-08-01T13:36:01;99128.84;;;30.32;39.73
43503;BME280;29098;48.184;16.298;2022-08-01T13:39:13;99127.09;;;30.45;38.01
43503;BME280;29098;48.184;16.298;2022-08-01T13:42:20;99128.53;;;30.86;36.41
43503;BME280;29098;48.184;16.298;2022-08-01T13:45:39;99137.22;;;31.66;36.63
43503;BME280;29098;48.184;16.298;2022-08-01T13:48:42;99139.28;;;31.69;34.50
43503;BME280;29098;48.184;16.298;2022-08-01T13:51:50;99142.56;;;31.84;34.21
43503;BME280;29098;48.184;16.298;2022-08-01T13:54:58;99145.09;;;32.62;33.13
43503;BME280;29098;48.184;16.298;2022-08-01T13:58:05;99125.56;;;32.85;31.98
43503;BME280;29098;48.184;16.298;2022-08-01T14:00:51;99133.41;;;32.40;33.32
43503;BME280;29098;48.184;16.298;2022-08-01T14:04:00;99143.63;;;32.22;32.88
43503;BME280;29098;48.184;16.298;2022-08-01T14:07:28;99140.38;;;31.38;33.88
43503;BME280;29098;48.184;16.298;2022-08-01T14:10:34;99150.03;;;31.27;34.06
43503;BME280;29098;48.184;16.298;2022-08-01T14:13:23;99143.63;;;32.01;32.96
43503;BME280;29098;48.184;16.298;2022-08-01T14:15:52;99149.88;;;31.14;33.52
43503;BME280;29098;48.184;16.298;2022-08-01T14:19:18;99143.72;;;31.83;33.53
43503;BME280;29098;48.184;16.298;2022-08-01T14:22:26;99174.06;;;32.24;32.53
43503;BME280;29098;48.184;16.298;2022-08-01T14:25:36;99142.94;;;32.25;32.58
43503;BME280;29098;48.184;16.298;2022-08-01T14:28:28;99144.09;;;31.34;32.83
43503;BME280;29098;48.184;16.298;2022-08-01T14:31:45;99144.53;;;31.44;33.51
43503;BME280;29098;48.184;16.298;2022-08-01T14:35:17;99142.31;;;31.38;33.80
43503;BME280;29098;48.184;16.298;2022-08-01T14:38:23;99136.75;;;31.94;32.41
43503;BME280;29098;48.184;16.298;2022-08-01T14:41:30;99129.34;;;31.35;33.13
43503;BME280;29098;48.184;16.298;2022-08-01T14:44:09;99128.03;;;32.01;32.58
43503;BME280;29098;48.184;16.298;2022-08-01T14:47:16;99130.19;;;32.38;31.48
43503;BME280;29098;48.184;16.298;2022-08-01T14:50:30;99120.56;;;32.74;31.00
43503;BME280;29098;48.184;16.298;2022-08-01T14:53:57;99125.00;;;32.03;31.69
43503;BME280;29098;48.184;16.298;2022-08-01T14:56:55;99138.22;;;32.89;31.37
43503;BME280;29098;48.184;16.298;2022-08-01T15:00:04;99134.88;;;32.71;30.14
43503;BME280;29098;48.184;16.298;2022-08-01T15:06:28;99131.84;;;31.79;31.90
43503;BME280;29098;48.184;16.298;2022-08-01T15:09:25;99132.19;;;31.47;32.89
43503;BME280;29098;48.184;16.298;2022-08-01T15:12:15;99133.63;;;32.26;32.16
43503;BME280;29098;48.184;16.298;2022-08-01T15:14:41;99125.91;;;32.07;32.68
43503;BME280;29098;48.184;16.298;2022-08-01T15:17:48;99125.75;;;32.67;31.58
43503;BME280;29098;48.184;16.298;2022-08-01T15:20:55;99146.13;;;32.70;31.30
43503;BME280;29098;48.184;16.298;2022-08-01T15:24:02;99151.31;;;33.55;30.53
43503;BME280;29098;48.184;16.298;2022-08-01T15:27:14;99137.88;;;34.40;29.94
43503;BME280;29098;48.184;16.298;2022-08-01T15:30:12;99124.50;;;32.64;31.97
43503;BME280;29098;48.184;16.298;2022-08-01T15:33:24;99144.13;;;32.15;32.86
43503;BME280;29098;48.184;16.298;2022-08-01T15:36:32;99139.59;;;33.54;31.14
43503;BME280;29098;48.184;16.298;2022-08-01T15:39:49;99138.47;;;34.62;29.76
43503;BME280;29098;48.184;16.298;2022-08-01T15:42:17;99130.13;;;34.30;29.77
43503;BME280;29098;48.184;16.298;2022-08-01T15:44:52;99129.38;;;35.35;28.43
43503;BME280;29098;48.184;16.298;2022-08-01T15:48:03;99118.31;;;35.47;28.14
43503;BME280;29098;48.184;16.298;2022-08-01T15:51:08;99124.38;;;34.76;28.65
43503;BME280;29098;48.184;16.298;2022-08-01T15:54:29;99126.53;;;35.63;28.57
43503;BME280;29098;48.184;16.298;2022-08-01T15:57:55;99129.91;;;35.92;27.81
43503;BME280;29098;48.184;16.298;2022-08-01T16:01:04;99122.44;;;34.93;29.07
43503;BME280;29098;48.184;16.298;2022-08-01T16:04:04;99121.78;;;36.16;27.85
43503;BME280;29098;48.184;16.298;2022-08-01T16:07:33;99122.00;;;35.71;27.52
43503;BME280;29098;48.184;16.298;2022-08-01T16:10:44;99105.56;;;34.18;30.09
43503;BME280;29098;48.184;16.298;2022-08-01T16:13:38;99117.19;;;34.14;30.33
43503;BME280;29098;48.184;16.298;2022-08-01T16:16:28;99108.38;;;33.80;30.70
43503;BME280;29098;48.184;16.298;2022-08-01T16:19:23;99101.50;;;32.10;33.63
43503;BME280;29098;48.184;16.298;2022-08-01T16:22:37;99108.47;;;31.78;33.96
43503;BME280;29098;48.184;16.298;2022-08-01T16:25:44;99106.97;;;31.89;33.41
43503;BME280;29098;48.184;16.298;2022-08-01T16:28:40;99089.78;;;30.63;35.78
43503;BME280;29098;48.184;16.298;2022-08-01T16:31:48;99105.66;;;30.34;36.86
43503;BME280;29098;48.184;16.298;2022-08-01T16:35:04;99122.22;;;29.71;37.42
43503;BME280;29098;48.184;16.298;2022-08-01T16:37:58;99125.59;;;29.45;37.35
43503;BME280;29098;48.184;16.298;2022-08-01T16:41:29;99118.69;;;29.62;38.23
43503;BME280;29098;48.184;16.298;2022-08-01T16:44:38;99112.25;;;29.17;38.12
43503;BME280;29098;48.184;16.298;2022-08-01T16:48:04;99135.59;;;28.73;38.39
43503;BME280;29098;48.184;16.298;2022-08-01T16:51:21;99116.03;;;28.39;39.11